Time;durP1;ratioP1;P1;durP2;ratioP2;P2;SDS_P1;SDS_P2;PMS_P1;PMS_P2;Temp;Humidity;BMP_temperature;BMP_pressure;BME280_temperature;BME280_humidity;BME280_pressure;Samples;Min_cycle;Max_cycle;Signal;HPM_P1;HPM_P2
2021/08/11 00:01:14;;;;;;;;;;;;;;;21.41;60.35;99741.44;5300848;27;19984;-89
2021/08/11 00:03:40;;;;;;;;;;;;;;;21.37;60.35;99732.88;5300793;27;20331;-89
2021/08/11 00:06:06;;;;;;;;;;;;;;;21.35;60.35;99737.47;5320934;27;20023;-89
2021/08/11 00:08:32;;;;;;;;;;;;;;;21.27;60.34;99741.63;5300439;27;19967;-88
2021/08/11 00:10:57;;;;;;;;;;;;;;;21.34;60.35;99740.22;5299909;27;19991;-89
2021/08/11 00:13:22;;;;;;;;;;;;;;;21.21;60.34;99742.91;5301027;27;19956;-89
2021/08/11 00:15:47;;;;;;;;;;;;;;;21.32;60.34;99737.69;5300249;27;19983;-89
2021/08/11 00:18:14;;;;;;;;;;;;;;;21.32;60.34;99740.34;5300673;27;19995;-88
2021/08/11 00:20:39;;;;;;;;;;;;;;;21.44;60.34;99747.34;5320658;27;19967;-89
2021/08/11 00:23:05;;;;;;;;;;;;;;;21.39;60.34;99738.06;5282294;27;19967;-89
2021/08/11 00:25:30;;;;;;;;;;;;;;;21.43;60.35;99750.09;5300540;27;20027;-88
2021/08/11 00:27:55;;;;;;;;;;;;;;;21.18;60.34;99758.19;5282311;27;19971;-88
2021/08/11 00:30:20;;;;;;;;;;;;;;;21.20;60.34;99743.88;5300349;27;20273;-86
2021/08/11 00:32:46;;;;;;;;;;;;;;;21.36;60.34;99752.38;5282201;27;19976;-89
2021/08/11 00:35:11;;;;;;;;;;;;;;;21.38;60.35;99750.47;5300547;27;20010;-90
2021/08/11 00:37:36;;;;;;;;;;;;;;;21.28;60.34;99751.25;5300190;27;20766;-90
2021/08/11 00:40:02;;;;;;;;;;;;;;;21.34;60.34;99753.47;5281959;27;20003;-89
2021/08/11 00:42:27;;;;;;;;;;;;;;;21.55;60.35;99762.41;5282009;27;19986;-89
2021/08/11 00:44:52;;;;;;;;;;;;;;;21.43;60.35;99756.25;5320219;27;20275;-90
2021/08/11 00:47:18;;;;;;;;;;;;;;;21.27;60.35;99754.88;5300433;27;20059;-89
2021/08/11 00:49:44;;;;;;;;;;;;;;;21.39;60.34;99759.25;5300596;27;19979;-89
2021/08/11 00:52:09;;;;;;;;;;;;;;;21.43;60.35;99753.59;5300279;27;20014;-90
2021/08/11 00:54:35;;;;;;;;;;;;;;;21.51;60.35;99753.00;5282228;27;19983;-90
2021/08/11 00:57:00;;;;;;;;;;;;;;;21.26;60.34;99758.47;5282088;27;20051;-90
2021/08/11 00:59:25;;;;;;;;;;;;;;;21.43;60.35;99755.41;5319597;27;20317;-90
2021/08/11 01:01:50;;;;;;;;;;;;;;;21.18;60.34;99763.50;5300292;27;20237;-90
2021/08/11 01:04:16;;;;;;;;;;;;;;;21.08;60.32;99761.56;5300443;27;19978;-89
2021/08/11 01:06:41;;;;;;;;;;;;;;;21.12;60.33;99751.56;5282188;27;19998;-90
2021/08/11 01:09:07;;;;;;;;;;;;;;;21.35;60.34;99752.50;5299974;27;19994;-90
2021/08/11 01:11:32;;;;;;;;;;;;;;;21.23;60.33;99751.59;5300213;27;19970;-89
2021/08/11 01:13:58;;;;;;;;;;;;;;;21.29;60.34;99740.56;5300256;27;19990;-89
2021/08/11 01:16:23;;;;;;;;;;;;;;;21.33;60.35;99749.97;5282285;27;19998;-89
2021/08/11 01:18:48;;;;;;;;;;;;;;;21.31;60.34;99761.66;5300557;27;19979;-89
2021/08/11 01:21:16;;;;;;;;;;;;;;;21.43;60.35;99761.53;5300309;27;20309;-90
2021/08/11 01:23:58;;;;;;;;;;;;;;;21.57;60.36;99754.34;5301647;27;19982;-90
2021/08/11 01:26:53;;;;;;;;;;;;;;;21.53;60.35;99755.53;5301728;27;20006;-89
2021/08/11 01:29:19;;;;;;;;;;;;;;;21.29;60.34;99752.94;5282396;27;19979;-89
2021/08/11 01:31:51;;;;;;;;;;;;;;;21.31;60.34;99749.25;5301641;27;19979;-90
2021/08/11 01:34:20;;;;;;;;;;;;;;;21.50;60.36;99753.12;5283062;27;20042;-90
2021/08/11 01:36:52;;;;;;;;;;;;;;;21.51;60.35;99753.00;5301466;27;20019;-89
2021/08/11 01:39:36;;;;;;;;;;;;;;;21.38;60.34;99758.41;5301356;27;19968;-89
2021/08/11 01:42:23;;;;;;;;;;;;;;;21.26;60.34;99753.19;5321425;27;20301;-90
2021/08/11 01:44:54;;;;;;;;;;;;;;;21.17;60.33;99749.41;5283130;27;19980;-89
2021/08/11 01:47:21;;;;;;;;;;;;;;;21.14;60.33;99752.31;5321444;27;19979;-89
2021/08/11 01:49:46;;;;;;;;;;;;;;;21.31;60.34;99748.41;5301137;27;19990;-89
2021/08/11 01:52:12;;;;;;;;;;;;;;;21.23;60.33;99745.44;5301175;27;19969;-89
2021/08/11 01:54:37;;;;;;;;;;;;;;;21.26;60.34;99750.53;5301329;27;19968;-89
2021/08/11 01:57:06;;;;;;;;;;;;;;;21.30;60.34;99754.66;5301280;27;20252;-89
2021/08/11 01:59:31;;;;;;;;;;;;;;;21.15;60.33;99752.19;5301337;27;19964;-89
2021/08/11 02:01:56;;;;;;;;;;;;;;;21.19;60.34;99755.44;5301317;27;20268;-88
2021/08/11 02:04:21;;;;;;;;;;;;;;;21.26;60.34;99739.94;5300535;27;26874;-88
2021/08/11 02:06:46;;;;;;;;;;;;;;;21.11;60.33;99748.09;5301214;27;19979;-88
2021/08/11 02:09:12;;;;;;;;;;;;;;;21.14;60.33;99753.16;5301282;27;19982;-86
2021/08/11 02:11:38;;;;;;;;;;;;;;;21.09;60.33;99752.66;5301348;27;20523;-86
2021/08/11 02:14:03;;;;;;;;;;;;;;;21.26;60.34;99750.53;5301476;27;20269;-86
2021/08/11 02:16:28;;;;;;;;;;;;;;;21.28;60.33;99753.91;5301355;27;19959;-86
2021/08/11 02:18:54;;;;;;;;;;;;;;;21.28;60.33;99745.97;5320411;27;23629;-85
2021/08/11 02:21:20;;;;;;;;;;;;;;;21.37;60.34;99745.28;5301422;27;19952;-85
2021/08/11 02:23:45;;;;;;;;;;;;;;;21.40;60.34;99739.75;5301666;27;20024;-84
2021/08/11 02:26:16;;;;;;;;;;;;;;;21.09;60.33;99746.50;5282375;27;20567;-85
2021/08/11 02:28:57;;;;;;;;;;;;;;;21.12;60.33;99733.03;5321218;27;19979;-85
2021/08/11 02:31:25;;;;;;;;;;;;;;;21.10;60.33;99734.97;5321198;27;20285;-86
2021/08/11 02:33:54;;;;;;;;;;;;;;;21.06;60.32;99739.66;5282563;27;20022;-86
2021/08/11 02:36:22;;;;;;;;;;;;;;;20.97;60.32;99740.31;5301345;27;19986;-86
2021/08/11 02:38:48;;;;;;;;;;;;;;;21.08;60.32;99748.31;5301275;27;19985;-87
2021/08/11 02:41:13;;;;;;;;;;;;;;;21.14;60.33;99747.84;5301169;27;19984;-87
2021/08/11 02:43:39;;;;;;;;;;;;;;;21.05;60.33;99745.03;5301176;27;20015;-88
2021/08/11 02:46:05;;;;;;;;;;;;;;;20.97;60.32;99742.97;5301295;27;19968;-87
2021/08/11 02:48:31;;;;;;;;;;;;;;;21.13;60.33;99735.56;5301321;27;19968;-87
2021/08/11 02:50:56;;;;;;;;;;;;;;;21.32;60.34;99734.22;5301545;27;19960;-87
2021/08/11 02:53:22;;;;;;;;;;;;;;;21.34;60.34;99732.28;5300652;27;28981;-88
2021/08/11 02:55:47;;;;;;;;;;;;;;;21.12;60.33;99733.87;5306218;27;19999;-89
2021/08/11 02:58:12;;;;;;;;;;;;;;;20.98;60.32;99741.16;5293029;27;19984;-88
2021/08/11 03:00:38;;;;;;;;;;;;;;;21.01;60.33;99747.06;5295091;27;19964;-88
2021/08/11 03:03:03;;;;;;;;;;;;;;;21.10;60.33;99749.03;5285513;27;20048;-88
2021/08/11 03:05:28;;;;;;;;;;;;;;;20.92;60.32;99742.47;5284743;27;19967;-88
2021/08/11 03:07:53;;;;;;;;;;;;;;;21.06;60.33;99747.59;5301465;27;19999;-88
2021/08/11 03:10:19;;;;;;;;;;;;;;;21.18;60.34;99739.66;5301381;27;20248;-88
2021/08/11 03:12:45;;;;;;;;;;;;;;;21.20;60.34;99743.88;5301040;27;19974;-88
2021/08/11 03:15:10;;;;;;;;;;;;;;;21.15;60.33;99748.69;5301009;27;19976;-88
2021/08/11 03:17:36;;;;;;;;;;;;;;;21.06;60.33;99752.03;5300797;27;20315;-87
2021/08/11 03:20:02;;;;;;;;;;;;;;;21.23;60.33;99743.66;5301042;27;20026;-87
2021/08/11 03:22:27;;;;;;;;;;;;;;;21.02;60.33;99740.81;5320923;27;19983;-89
2021/08/11 03:24:54;;;;;;;;;;;;;;;20.96;60.32;99743.09;5282035;27;27894;-88
2021/08/11 03:27:19;;;;;;;;;;;;;;;21.03;60.33;99747.78;5301033;27;19998;-89
2021/08/11 03:29:44;;;;;;;;;;;;;;;21.09;60.33;99752.66;5300912;27;19975;-89
2021/08/11 03:32:10;;;;;;;;;;;;;;;21.17;60.33;99744.13;5321009;27;19994;-89
2021/08/11 03:34:35;;;;;;;;;;;;;;;21.29;60.33;99748.50;5301161;27;20576;-89
2021/08/11 03:37:00;;;;;;;;;;;;;;;21.45;60.34;99743.72;5300412;27;22211;-89
2021/08/11 03:39:25;;;;;;;;;;;;;;;21.63;60.35;99748.56;5300920;27;20019;-89
2021/08/11 03:41:51;;;;;;;;;;;;;;;21.48;60.34;99747.09;5301065;27;19963;-88
2021/08/11 03:44:16;;;;;;;;;;;;;;;21.67;60.36;99747.38;5300201;27;23171;-88
2021/08/11 03:46:41;;;;;;;;;;;;;;;21.82;60.37;99753.28;5300606;27;20070;-87
2021/08/11 03:49:06;;;;;;;;;;;;;;;21.72;60.36;99753.12;5300609;27;20778;-88
2021/08/11 03:51:31;;;;;;;;;;;;;;;21.64;60.36;99745.81;5300408;27;20022;-90
2021/08/11 03:53:57;;;;;;;;;;;;;;;21.52;60.35;99754.69;5320689;27;19970;-89
2021/08/11 03:56:22;;;;;;;;;;;;;;;21.79;60.36;99753.53;5301060;27;19983;-88
2021/08/11 03:58:47;;;;;;;;;;;;;;;21.76;60.36;99755.44;5281786;27;28465;-86
2021/08/11 04:01:13;;;;;;;;;;;;;;;21.80;60.37;99756.06;5282226;27;22330;-91
2021/08/11 04:03:38;;;;;;;;;;;;;;;21.94;60.37;99757.59;5282615;27;20002;-90
2021/08/11 04:06:03;;;;;;;;;;;;;;;21.94;60.37;99765.56;5300209;27;24877;-90
2021/08/11 04:08:28;;;;;;;;;;;;;;;21.94;60.37;99765.56;5320863;27;20529;-88
2021/08/11 04:10:53;;;;;;;;;;;;;;;21.89;60.37;99765.06;5320614;27;20004;-86
2021/08/11 04:13:19;;;;;;;;;;;;;;;22.08;60.37;99765.34;5301051;27;19964;-87
2021/08/11 04:15:47;;;;;;;;;;;;;;;22.05;60.37;99770.91;5320845;27;19990;-87
2021/08/11 04:18:12;;;;;;;;;;;;;;;22.13;60.38;99764.97;5300874;27;20022;-87
2021/08/11 04:20:38;;;;;;;;;;;;;;;22.16;60.38;99772.69;5282566;27;20423;-86
2021/08/11 04:23:03;;;;;;;;;;;;;;;22.26;60.38;99773.66;5320894;27;20250;-86
2021/08/11 04:25:28;;;;;;;;;;;;;;;22.39;60.39;99771.69;5320673;27;20430;-86
2021/08/11 04:27:54;;;;;;;;;;;;;;;22.28;60.39;99775.22;5320860;27;20010;-87
2021/08/11 04:30:19;;;;;;;;;;;;;;;22.56;60.40;99771.16;5300706;27;20316;-86
2021/08/11 04:32:44;;;;;;;;;;;;;;;22.63;60.40;99772.34;5321007;27;19987;-86
2021/08/11 04:35:10;;;;;;;;;;;;;;;22.59;60.40;99768.25;5300642;27;19982;-86
2021/08/11 04:37:36;;;;;;;;;;;;;;;22.73;60.42;99769.81;5321046;27;20018;-85
2021/08/11 04:40:02;;;;;;;;;;;;;;;22.95;60.42;99775.06;5300868;27;19965;-87
2021/08/11 04:42:28;;;;;;;;;;;;;;;23.04;60.43;99776.09;5320951;27;19972;-86
2021/08/11 04:44:53;;;;;;;;;;;;;;;23.09;60.43;99778.38;5300055;27;28677;-85
2021/08/11 04:47:18;;;;;;;;;;;;;;;23.25;60.44;99771.66;5300506;27;19999;-85
2021/08/11 04:49:43;;;;;;;;;;;;;;;23.40;60.44;99777.47;5299581;27;29063;-86
2021/08/11 04:52:08;;;;;;;;;;;;;;;23.54;60.45;99771.00;5320396;27;19975;-86
2021/08/11 04:54:34;;;;;;;;;;;;;;;23.71;60.46;99772.25;5300315;27;20045;-86
2021/08/11 04:56:59;;;;;;;;;;;;;;;23.93;60.47;99787.19;5300619;27;19978;-85
2021/08/11 04:59:24;;;;;;;;;;;;;;;23.99;60.48;99786.63;5320119;27;20620;-85
2021/08/11 05:01:49;;;;;;;;;;;;;;;23.89;60.47;99781.25;5320564;27;20050;-85
2021/08/11 05:04:15;;;;;;;;;;;;;;;24.09;60.48;99785.69;5320818;27;19990;-86
2021/08/11 05:06:40;;;;;;;;;;;;;;;24.08;60.48;99780.50;5320881;27;19956;-86
2021/08/11 05:09:05;;;;;;;;;;;;;;;24.07;60.48;99773.50;5320269;27;20686;-87
2021/08/11 05:11:30;;;;;;;;;;;;;;;23.87;60.47;99784.06;5300869;27;20272;-85
2021/08/11 05:13:56;;;;;;;;;;;;;;;24.02;60.48;99784.56;5300643;27;20007;-86
2021/08/11 05:16:21;;;;;;;;;;;;;;;24.24;60.49;99785.34;5321819;27;19978;-85
2021/08/11 05:18:46;;;;;;;;;;;;;;;24.03;60.47;99788.88;5320969;27;19967;-86
2021/08/11 05:21:11;;;;;;;;;;;;;;;24.26;60.49;99784.22;5282159;27;19976;-85
2021/08/11 05:23:37;;;;;;;;;;;;;;;24.05;60.47;99792.25;5281776;27;20359;-86
2021/08/11 05:26:02;;;;;;;;;;;;;;;24.25;60.49;99789.66;5300074;27;25430;-86
2021/08/11 05:28:27;;;;;;;;;;;;;;;24.04;60.48;99797.72;5281542;27;23049;-85
2021/08/11 05:30:53;;;;;;;;;;;;;;;24.31;60.49;99789.16;5300570;27;20221;-86
2021/08/11 05:33:18;;;;;;;;;;;;;;;24.51;60.50;99795.37;5320375;27;19987;-86
2021/08/11 05:35:43;;;;;;;;;;;;;;;24.52;60.51;99797.91;5320714;27;20049;-86
2021/08/11 05:38:08;;;;;;;;;;;;;;;24.58;60.50;99797.34;5300600;27;20324;-85
2021/08/11 05:40:34;;;;;;;;;;;;;;;24.71;60.52;99805.09;5300285;27;19991;-86
2021/08/11 05:42:59;;;;;;;;;;;;;;;24.72;60.52;99801.44;5282215;27;19975;-86
2021/08/11 05:45:24;;;;;;;;;;;;;;;24.80;60.51;99798.91;5299881;27;20340;-86
2021/08/11 05:47:49;;;;;;;;;;;;;;;24.95;60.53;99804.69;5282327;27;20551;-86
2021/08/11 05:50:15;;;;;;;;;;;;;;;24.97;60.52;99806.22;5300441;27;19970;-86
2021/08/11 05:52:40;;;;;;;;;;;;;;;25.12;60.53;99803.19;5300451;27;19975;-85
2021/08/11 05:55:05;;;;;;;;;;;;;;;25.24;60.54;99804.72;5282111;27;19978;-86
2021/08/11 05:57:31;;;;;;;;;;;;;;;25.32;60.55;99813.69;5300521;27;20017;-86
2021/08/11 05:59:56;;;;;;;;;;;;;;;25.50;60.55;99813.78;5320478;27;19964;-86
2021/08/11 06:02:21;;;;;;;;;;;;;;;25.62;60.57;99814.50;5322400;27;19979;-87
2021/08/11 06:04:46;;;;;;;;;;;;;;;25.68;60.56;99821.94;5329016;27;19972;-86
2021/08/11 06:07:12;;;;;;;;;;;;;;;25.90;60.57;99813.59;5330196;27;19964;-86
2021/08/11 06:09:37;;;;;;;;;;;;;;;25.93;60.57;99812.47;5325126;27;20598;-86
2021/08/11 06:12:02;;;;;;;;;;;;;;;26.04;60.59;99814.97;5323872;27;20242;-86
2021/08/11 06:14:28;;;;;;;;;;;;;;;26.17;60.58;99817.28;5322203;27;19995;-86
2021/08/11 06:16:53;;;;;;;;;;;;;;;26.13;60.59;99816.75;5321552;27;19984;-86
2021/08/11 06:19:18;;;;;;;;;;;;;;;26.33;60.59;99814.00;5320917;27;19960;-86
2021/08/11 06:21:43;;;;;;;;;;;;;;;26.62;60.61;99812.03;5300949;27;23945;-87
2021/08/11 06:24:08;;;;;;;;;;;;;;;26.74;60.62;99810.84;5301334;27;19956;-86
2021/08/11 06:26:34;;;;;;;;;;;;;;;27.10;60.63;99803.69;5321247;27;20014;-87
2021/08/11 06:28:59;;;;;;;;;;;;;;;27.29;60.65;99794.66;5321278;27;19994;-87
2021/08/11 06:31:25;;;;;;;;;;;;;;;27.20;60.64;99801.75;5321319;27;19964;-86
2021/08/11 06:33:50;;;;;;;;;;;;;;;27.48;60.65;99804.34;5321382;27;20256;-86
2021/08/11 06:36:16;;;;;;;;;;;;;;;27.55;60.66;99796.53;5321352;27;19973;-87
2021/08/11 06:38:41;;;;;;;;;;;;;;;27.85;60.67;99798.75;5301199;27;19990;-87
2021/08/11 06:41:06;;;;;;;;;;;;;;;27.80;60.67;99801.06;5321142;27;19971;-87
2021/08/11 06:43:32;;;;;;;;;;;;;;;27.82;60.66;99802.56;5321236;27;20013;-87
2021/08/11 06:45:57;;;;;;;;;;;;;;;27.90;60.67;99795.59;5321257;27;19979;-86
2021/08/11 06:48:22;;;;;;;;;;;;;;;27.73;60.66;99790.16;5282935;27;19972;-86
2021/08/11 06:50:47;;;;;;;;;;;;;;;27.77;60.67;99793.34;5320623;27;19984;-87
2021/08/11 06:53:12;;;;;;;;;;;;;;;27.73;60.67;99795.50;5321245;27;19948;-86
2021/08/11 06:55:38;;;;;;;;;;;;;;;27.91;60.67;99791.91;5300715;27;23398;-87
2021/08/11 06:58:03;;;;;;;;;;;;;;;28.24;60.69;99798.28;5300996;27;20000;-86
2021/08/11 07:00:28;;;;;;;;;;;;;;;28.32;60.70;99801.00;5300893;27;19959;-87
2021/08/11 07:02:53;;;;;;;;;;;;;;;28.21;60.69;99810.16;5300987;27;20337;-87
2021/08/11 07:05:19;;;;;;;;;;;;;;;28.13;60.68;99804.75;5301021;27;19964;-86
2021/08/11 07:07:44;;;;;;;;;;;;;;;28.21;60.69;99810.16;5320902;27;20277;-87
2021/08/11 07:10:10;;;;;;;;;;;;;;;28.24;60.70;99801.78;5300959;27;19972;-87
2021/08/11 07:12:35;;;;;;;;;;;;;;;28.38;60.70;99801.19;5300862;27;19948;-87
2021/08/11 07:15:00;;;;;;;;;;;;;;;28.66;60.71;99807.16;5300960;27;19972;-86
2021/08/11 07:17:26;;;;;;;;;;;;;;;28.61;60.70;99805.94;5303280;27;19968;-88
2021/08/11 07:19:51;;;;;;;;;;;;;;;28.77;60.71;99808.69;5322780;27;21306;-87
2021/08/11 07:22:16;;;;;;;;;;;;;;;28.93;60.72;99808.75;5321509;27;19952;-87
2021/08/11 07:24:41;;;;;;;;;;;;;;;28.97;60.73;99814.59;5320206;27;20025;-87
2021/08/11 07:27:07;;;;;;;;;;;;;;;29.10;60.74;99814.09;5300768;27;20010;-86
2021/08/11 07:29:32;;;;;;;;;;;;;;;29.02;60.73;99810.41;5300157;27;20229;-87
2021/08/11 07:31:57;;;;;;;;;;;;;;;29.11;60.74;99805.94;5300740;27;19982;-87
2021/08/11 07:34:22;;;;;;;;;;;;;;;29.18;60.75;99803.41;5282385;27;20011;-87
2021/08/11 07:36:48;;;;;;;;;;;;;;;29.16;60.74;99811.63;5320332;27;20330;-87
2021/08/11 07:39:13;;;;;;;;;;;;;;;29.25;60.75;99815.97;5319950;27;20503;-87
2021/08/11 07:41:38;;;;;;;;;;;;;;;29.33;60.75;99818.63;5300798;27;19987;-88
2021/08/11 07:44:04;;;;;;;;;;;;;;;29.38;60.75;99814.62;5282286;27;20029;-87
2021/08/11 07:46:29;;;;;;;;;;;;;;;29.58;60.77;99808.78;5282353;27;19975;-88
2021/08/11 07:48:54;;;;;;;;;;;;;;;29.59;60.76;99815.81;5300388;27;19995;-87
2021/08/11 07:51:19;;;;;;;;;;;;;;;29.76;60.77;99805.03;5282250;27;20320;-87
2021/08/11 07:53:45;;;;;;;;;;;;;;;29.89;60.77;99802.69;5300419;27;20036;-88
2021/08/11 07:56:10;;;;;;;;;;;;;;;29.82;60.78;99805.22;5297004;27;96877;-87
2021/08/11 07:58:35;;;;;;;;;;;;;;;29.82;60.78;99807.06;5319943;27;20007;-87
2021/08/11 08:01:00;;;;;;;;;;;;;;;29.94;60.78;99803.00;5300757;27;20333;-88
2021/08/11 08:03:26;;;;;;;;;;;;;;;29.92;60.78;99796.97;5300564;27;19975;-87
2021/08/11 08:05:51;;;;;;;;;;;;;;;30.00;60.78;99798.78;5320543;27;19960;-86
2021/08/11 08:08:17;;;;;;;;;;;;;;;30.22;60.80;99798.91;5320040;27;20319;-86
2021/08/11 08:10:42;;;;;;;;;;;;;;;30.24;60.80;99796.03;5300349;27;19971;-88
2021/08/11 08:13:07;;;;;;;;;;;;;;;30.31;60.80;99799.72;5300072;27;20026;-87
2021/08/11 08:15:33;;;;;;;;;;;;;;;30.27;60.79;99802.91;5320104;27;19997;-89
2021/08/11 08:17:58;;;;;;;;;;;;;;;30.31;60.80;99797.03;5300044;27;19994;-89
2021/08/11 08:20:23;;;;;;;;;;;;;;;30.55;60.81;99796.06;5299798;27;19971;-88
2021/08/11 08:22:48;;;;;;;;;;;;;;;30.76;60.81;99798.16;5281989;27;20016;-88
2021/08/11 08:25:14;;;;;;;;;;;;;;;31.04;60.84;99798.47;5282082;27;20407;-89
2021/08/11 08:27:39;;;;;;;;;;;;;;;31.19;60.85;99796.69;5282172;27;19972;-89
2021/08/11 08:30:05;;;;;;;;;;;;;;;31.35;60.85;99793.88;5300863;27;19971;-89
2021/08/11 08:32:31;;;;;;;;;;;;;;;31.26;60.85;99794.97;5300566;27;19984;-90
2021/08/11 08:34:57;;;;;;;;;;;;;;;31.26;60.85;99804.88;5319925;27;19972;-88
2021/08/11 08:37:26;;;;;;;;;;;;;;;31.31;60.85;99802.47;5320578;27;20011;-86
2021/08/11 08:39:51;;;;;;;;;;;;;;;31.33;60.86;99800.44;5320647;27;19952;-89
2021/08/11 08:42:16;;;;;;;;;;;;;;;31.52;60.86;99799.09;5300264;27;19987;-90
2021/08/11 08:44:41;;;;;;;;;;;;;;;31.44;60.86;99800.00;5320597;27;19967;-88
2021/08/11 08:47:07;;;;;;;;;;;;;;;31.71;60.88;99804.81;5320083;26;20004;-87
2021/08/11 08:49:32;;;;;;;;;;;;;;;31.75;60.87;99795.34;5281734;27;19975;-87
2021/08/11 08:51:57;;;;;;;;;;;;;;;31.78;60.87;99810.31;5300464;27;20010;-86
2021/08/11 08:54:23;;;;;;;;;;;;;;;31.78;60.87;99806.78;5320579;27;20280;-88
2021/08/11 08:56:48;;;;;;;;;;;;;;;32.09;60.89;99801.19;5300254;27;19974;-87
2021/08/11 08:59:14;;;;;;;;;;;;;;;32.29;60.91;99800.47;5300371;27;20475;-87
2021/08/11 09:01:39;;;;;;;;;;;;;;;32.04;60.88;99810.69;5299820;27;20007;-87
2021/08/11 09:04:04;;;;;;;;;;;;;;;32.17;60.89;99812.69;5280956;27;28769;-87
2021/08/11 09:06:36;;;;;;;;;;;;;;;32.33;60.90;99811.72;5299721;27;28985;-87
2021/08/11 09:09:05;;;;;;;;;;;;;;;32.24;60.90;99812.81;5320266;27;19983;-87
2021/08/11 09:11:30;;;;;;;;;;;;;;;32.42;60.90;99797.13;5300630;27;19995;-87
2021/08/11 09:14:20;;;;;;;;;;;;;;;32.29;60.90;99796.94;5300553;27;20293;-87
2021/08/11 09:16:51;;;;;;;;;;;;;;;32.18;60.90;99806.31;5282329;27;19987;-87
2021/08/11 09:19:17;;;;;;;;;;;;;;;32.27;60.90;99804.38;5300718;27;20363;-87
2021/08/11 09:22:01;;;;;;;;;;;;;;;32.38;60.91;99814.66;5321174;27;19979;-85
2021/08/11 09:24:26;;;;;;;;;;;;;;;32.40;60.91;99801.00;5325819;27;19981;-88
2021/08/11 09:26:52;;;;;;;;;;;;;;;32.59;60.92;99803.09;5309559;27;19980;-87
2021/08/11 09:29:18;;;;;;;;;;;;;;;32.48;60.91;99812.53;5310078;27;20319;-87
2021/08/11 09:31:44;;;;;;;;;;;;;;;32.71;60.93;99812.38;5302776;27;20395;-86
2021/08/11 09:34:10;;;;;;;;;;;;;;;32.58;60.92;99804.97;5322666;27;19963;-87
2021/08/11 09:36:40;;;;;;;;;;;;;;;32.74;60.92;99814.69;5302906;27;19983;-86
2021/08/11 09:39:05;;;;;;;;;;;;;;;32.65;60.93;99810.41;5302473;27;19936;-87
2021/08/11 09:41:33;;;;;;;;;;;;;;;32.59;60.93;99809.31;5300850;27;20324;-86
2021/08/11 09:44:06;;;;;;;;;;;;;;;32.64;60.93;99816.84;5301036;27;19983;-86
2021/08/11 09:46:31;;;;;;;;;;;;;;;32.70;60.93;99828.75;5301470;27;19968;-86
2021/08/11 09:48:56;;;;;;;;;;;;;;;32.69;60.93;99825.22;5321230;27;19978;-86
2021/08/11 09:51:22;;;;;;;;;;;;;;;32.91;60.95;99826.94;5300817;27;19983;-86
2021/08/11 09:53:47;;;;;;;;;;;;;;;33.13;60.95;99821.56;5300809;27;19983;-86
2021/08/11 09:56:12;;;;;;;;;;;;;;;33.17;60.96;99812.88;5301821;27;19987;-86
2021/08/11 09:58:38;;;;;;;;;;;;;;;33.27;60.96;99817.94;5301337;27;19976;-85
2021/08/11 10:01:23;;;;;;;;;;;;;;;33.26;60.96;99817.09;5322395;27;19968;-87
2021/08/11 10:04:01;;;;;;;;;;;;;;;33.26;60.96;99817.09;5283301;27;19972;-87
2021/08/11 10:06:27;;;;;;;;;;;;;;;33.25;60.96;99828.94;5301427;27;19967;-87
2021/08/11 10:08:53;;;;;;;;;;;;;;;33.05;60.95;99818.97;5303743;27;19971;-87
2021/08/11 10:11:35;;;;;;;;;;;;;;;33.20;60.96;99825.97;5283750;27;19988;-87
2021/08/11 10:14:00;;;;;;;;;;;;;;;33.11;60.95;99826.28;5283882;27;19979;-87
2021/08/11 10:16:25;;;;;;;;;;;;;;;32.95;60.95;99824.69;5301773;27;19975;-88
2021/08/11 10:18:50;;;;;;;;;;;;;;;32.85;60.94;99813.38;5287112;27;19990;-87
2021/08/11 10:21:16;;;;;;;;;;;;;;;33.00;60.95;99816.03;5303602;27;21631;-87
2021/08/11 10:23:41;;;;;;;;;;;;;;;33.19;60.96;99820.78;5300608;27;25583;-88
2021/08/11 10:26:06;;;;;;;;;;;;;;;33.07;60.94;99823.16;5300598;27;19979;-86
2021/08/11 10:28:31;;;;;;;;;;;;;;;33.09;60.95;99822.94;5281794;27;35351;-88
2021/08/11 10:30:57;;;;;;;;;;;;;;;33.09;60.96;99817.56;5320589;27;19964;-87
2021/08/11 10:33:22;;;;;;;;;;;;;;;33.16;60.96;99816.59;5300519;27;26530;-88
2021/08/11 10:35:47;;;;;;;;;;;;;;;33.18;60.96;99813.72;5301042;27;19975;-88
2021/08/11 10:38:14;;;;;;;;;;;;;;;33.24;60.96;99826.44;5301182;27;20743;-87
2021/08/11 10:40:40;;;;;;;;;;;;;;;33.08;60.95;99821.28;5320981;27;19963;-87
2021/08/11 10:43:06;;;;;;;;;;;;;;;33.14;60.95;99813.28;5301145;27;19972;-87
2021/08/11 10:45:31;;;;;;;;;;;;;;;33.25;60.96;99818.13;5300832;27;20301;-87
2021/08/11 10:47:56;;;;;;;;;;;;;;;33.14;60.95;99823.22;5300987;27;19948;-87
2021/08/11 10:50:21;;;;;;;;;;;;;;;33.24;60.96;99826.44;5282675;27;20017;-88
2021/08/11 10:52:49;;;;;;;;;;;;;;;33.13;60.95;99829.66;5300998;27;20327;-87
2021/08/11 10:55:15;;;;;;;;;;;;;;;33.15;60.95;99827.59;5300975;27;19984;-88
2021/08/11 10:57:41;;;;;;;;;;;;;;;32.98;60.94;99829.69;5301177;27;19970;-87
2021/08/11 11:00:21;;;;;;;;;;;;;;;33.03;60.95;99835.34;5320465;27;19975;-87
2021/08/11 11:02:48;;;;;;;;;;;;;;;33.10;60.95;99828.16;5301051;27;19982;-88
2021/08/11 11:05:20;;;;;;;;;;;;;;;33.13;60.95;99827.78;5301439;27;19990;-88
2021/08/11 11:08:04;;;;;;;;;;;;;;;33.07;60.95;99830.41;5321057;27;20312;-87
2021/08/11 11:10:29;;;;;;;;;;;;;;;32.81;60.94;99829.09;5321137;27;19964;-87
2021/08/11 11:12:54;;;;;;;;;;;;;;;32.78;60.94;99829.44;5301111;27;20022;-89
2021/08/11 11:15:38;;;;;;;;;;;;;;;32.81;60.93;99826.41;5282753;27;20381;-89
2021/08/11 11:18:23;;;;;;;;;;;;;;;32.84;60.94;99819.78;5320870;27;20018;-88
2021/08/11 11:20:48;;;;;;;;;;;;;;;33.01;60.95;99820.38;5304056;27;20029;-88
2021/08/11 11:23:32;;;;;;;;;;;;;;;32.99;60.94;99825.16;5302043;27;20356;-89
2021/08/11 11:26:10;;;;;;;;;;;;;;;32.92;60.95;99820.53;5303012;27;19968;-88
2021/08/11 11:28:54;;;;;;;;;;;;;;;33.10;60.96;99820.06;5320740;27;20369;-87
2021/08/11 11:31:35;;;;;;;;;;;;;;;33.15;60.95;99816.81;5300946;27;20021;-87
2021/08/11 11:34:20;;;;;;;;;;;;;;;33.22;60.96;99821.22;5321048;27;19967;-87
2021/08/11 11:36:54;;;;;;;;;;;;;;;33.39;60.96;99810.19;5321421;27;19971;-88
2021/08/11 11:39:20;;;;;;;;;;;;;;;33.15;60.95;99814.94;5320962;27;19951;-87
2021/08/11 11:42:04;;;;;;;;;;;;;;;33.24;60.96;99805.69;5300999;27;20007;-89
2021/08/11 11:44:41;;;;;;;;;;;;;;;33.26;60.96;99806.31;5321359;27;20024;-89
2021/08/11 11:47:07;;;;;;;;;;;;;;;33.27;60.96;99804.44;5301255;27;20370;-88
2021/08/11 11:49:32;;;;;;;;;;;;;;;33.38;60.96;99795.03;5321149;27;19964;-88
2021/08/11 11:51:57;;;;;;;;;;;;;;;33.41;60.97;99794.66;5320691;27;20026;-86
2021/08/11 11:54:22;;;;;;;;;;;;;;;33.19;60.96;99800.03;5282837;27;19992;-87
2021/08/11 11:56:48;;;;;;;;;;;;;;;33.36;60.97;99799.78;5301021;27;19997;-88
2021/08/11 11:59:13;;;;;;;;;;;;;;;33.22;60.96;99791.53;5321100;27;19952;-87
2021/08/11 12:01:38;;;;;;;;;;;;;;;33.31;60.96;99797.63;5300547;27;20106;-88
2021/08/11 12:04:04;;;;;;;;;;;;;;;33.39;60.96;99802.09;5301212;27;19991;-88
2021/08/11 12:06:55;;;;;;;;;;;;;;;33.46;60.97;99794.87;5282461;27;19964;-89
2021/08/11 12:09:20;;;;;;;;;;;;;;;33.30;60.96;99801.34;5316168;27;19964;-88
2021/08/11 12:11:46;;;;;;;;;;;;;;;33.60;60.98;99796.66;5300608;27;20359;-88
2021/08/11 12:14:11;;;;;;;;;;;;;;;33.63;60.97;99807.06;5300986;27;20006;-88
2021/08/11 12:16:40;;;;;;;;;;;;;;;33.51;60.97;99804.06;5301086;27;19984;-87
2021/08/11 12:19:23;;;;;;;;;;;;;;;33.28;60.96;99803.41;5301219;27;19968;-88
2021/08/11 12:21:48;;;;;;;;;;;;;;;33.34;60.97;99797.28;5282565;27;19999;-88
2021/08/11 12:24:14;;;;;;;;;;;;;;;33.48;60.98;99796.34;5301369;27;19968;-88
2021/08/11 12:26:39;;;;;;;;;;;;;;;33.31;60.96;99803.03;5321174;27;20363;-87
2021/08/11 12:29:17;;;;;;;;;;;;;;;33.08;60.96;99797.84;5301097;27;20035;-88
2021/08/11 12:31:43;;;;;;;;;;;;;;;33.18;60.96;99792.12;5300179;27;20030;-87
2021/08/11 12:34:09;;;;;;;;;;;;;;;33.25;60.96;99784.94;5300838;27;19976;-89
2021/08/11 12:36:35;;;;;;;;;;;;;;;33.36;60.97;99788.97;5303952;27;19995;-88
2021/08/11 12:39:13;;;;;;;;;;;;;;;33.43;60.97;99788.03;5307924;27;20635;-89
2021/08/11 12:41:39;;;;;;;;;;;;;;;33.26;60.96;99794.69;5304445;27;19979;-88
2021/08/11 12:44:18;;;;;;;;;;;;;;;33.08;60.96;99780.81;5282443;27;19976;-88
2021/08/11 12:46:43;;;;;;;;;;;;;;;33.20;60.96;99782.81;5300531;27;19976;-88